createdAt,value
2023-05-13T00:04:22.879Z,78.82
2023-05-13T00:09:28.536Z,79.02
2023-05-13T00:14:34.018Z,79.69
2023-05-13T00:19:39.449Z,79.78
2023-05-13T00:24:45.146Z,79.43
2023-05-13T00:29:50.722Z,80.06
2023-05-13T00:34:56.864Z,79.98
2023-05-13T00:40:02.386Z,80.09
2023-05-13T00:45:09.650Z,79.87
2023-05-13T00:50:15.964Z,80.34
2023-05-13T00:55:21.377Z,81.11
2023-05-13T01:00:27.982Z,81.75
2023-05-13T01:05:43.557Z,82.33
2023-05-13T01:10:55.433Z,82.76
2023-05-13T01:16:07.278Z,82.63
2023-05-13T01:21:13.463Z,82.44
2023-05-13T01:26:19.289Z,82.16
2023-05-13T01:31:25.800Z,82.10
2023-05-13T01:36:32.556Z,82.98
2023-05-13T01:41:38.257Z,83.47
2023-05-13T01:46:45.611Z,83.89
2023-05-13T01:51:51.973Z,84.36
2023-05-13T01:56:57.643Z,84.53
2023-05-13T02:02:04.299Z,84.49
2023-05-13T02:07:09.786Z,84.35
2023-05-13T02:12:15.244Z,84.75
2023-05-13T02:17:22.609Z,84.84
2023-05-13T02:22:28.625Z,85.40
2023-05-13T02:27:34.530Z,86.02
2023-05-13T02:32:42.843Z,86.52
2023-05-13T02:37:48.842Z,86.89
2023-05-13T02:42:56.173Z,86.91
2023-05-13T02:48:04.380Z,87.25
2023-05-13T02:53:10.316Z,87.52
2023-05-13T02:58:18.622Z,87.47
2023-05-13T03:03:26.835Z,87.79
2023-05-13T03:08:32.386Z,88.17
2023-05-13T03:13:38.310Z,86.13
2023-05-13T03:18:43.711Z,85.24
2023-05-13T03:23:49.312Z,85.68
2023-05-13T03:28:55.336Z,85.26
2023-05-13T03:34:00.804Z,83.84
2023-05-13T03:39:07.838Z,82.41
2023-05-13T03:44:13.422Z,81.19
2023-05-13T03:49:19.203Z,81.19
2023-05-13T03:54:25.196Z,80.28
2023-05-13T03:59:30.843Z,80.16
2023-05-13T04:04:37.000Z,80.55
2023-05-13T04:09:42.969Z,79.52
2023-05-13T04:14:48.369Z,78.47
2023-05-13T04:19:56.072Z,76.74
2023-05-13T04:25:01.811Z,75.55
2023-05-13T04:30:09.350Z,74.19
2023-05-13T04:35:16.915Z,72.31
2023-05-13T04:40:24.933Z,67.85
2023-05-13T04:45:32.496Z,59.42
2023-05-13T04:50:39.069Z,52.47
2023-05-13T04:55:46.448Z,46.90
2023-05-13T05:00:51.950Z,42.67
2023-05-13T05:05:57.702Z,39.21
2023-05-13T05:11:03.520Z,36.31
2023-05-13T05:16:11.669Z,34.16
2023-05-13T05:21:18.761Z,32.17
2023-05-13T05:26:24.495Z,29.80
2023-05-13T05:31:31.869Z,28.06
2023-05-13T05:36:40.310Z,26.59
2023-05-13T05:41:47.295Z,25.49
2023-05-13T05:46:53.811Z,25.60
2023-05-13T05:51:59.349Z,25.20
2023-05-13T05:57:06.422Z,24.55
2023-05-13T06:02:12.589Z,22.81
2023-05-13T06:07:18.507Z,22.21
2023-05-13T06:26:39.455Z,19.55
2023-05-13T06:31:45.247Z,18.74
2023-05-13T06:36:50.714Z,18.75
2023-05-13T06:41:56.345Z,17.94
2023-05-13T06:47:14.869Z,17.39
2023-05-13T06:52:21.562Z,16.97
2023-05-13T06:57:38.763Z,16.73
2023-05-13T07:02:47.723Z,16.37
2023-05-13T07:07:53.840Z,16.15
2023-05-13T07:12:57.936Z,15.93
2023-05-13T07:18:03.525Z,15.25
2023-05-13T07:23:08.880Z,14.34
2023-05-13T07:28:14.335Z,14.43
2023-05-13T07:33:19.867Z,14.70
2023-05-13T07:38:25.775Z,14.66
2023-05-13T07:43:30.020Z,13.56
2023-05-13T07:48:35.627Z,13.60
2023-05-13T07:53:41.236Z,13.57
2023-05-13T07:58:57.237Z,14.36
2023-05-13T08:04:01.675Z,14.32
2023-05-13T08:09:09.446Z,13.83
2023-05-13T08:14:14.999Z,13.55
2023-05-13T08:19:22.857Z,13.38
2023-05-13T08:24:29.074Z,12.95
2023-05-13T08:29:34.447Z,12.98
2023-05-13T08:34:40.242Z,13.42
2023-05-13T08:39:45.897Z,13.35
2023-05-13T08:44:53.643Z,14.22
2023-05-13T08:49:59.971Z,14.21
2023-05-13T08:55:08.810Z,15.72
2023-05-13T09:00:17.608Z,15.85
2023-05-13T09:05:25.182Z,14.21
2023-05-13T09:10:31.080Z,14.37
2023-05-13T09:15:36.743Z,15.17
2023-05-13T09:20:42.668Z,14.60
2023-05-13T09:25:49.389Z,15.07
2023-05-13T09:30:59.832Z,15.40
2023-05-13T09:36:11.308Z,15.62
2023-05-13T09:41:21.125Z,14.43
2023-05-13T09:46:27.017Z,14.84
2023-05-13T09:51:36.084Z,15.13
2023-05-13T09:56:42.919Z,14.88
2023-05-13T10:01:49.914Z,15.61
2023-05-13T10:06:58.373Z,15.39
2023-05-13T10:12:20.620Z,15.94
2023-05-13T10:17:38.060Z,15.01
2023-05-13T10:22:56.539Z,14.74
2023-05-13T10:28:11.641Z,16.01
2023-05-13T10:34:04.222Z,16.55
2023-05-13T10:39:59.436Z,15.92
2023-05-13T10:52:06.931Z,16.19
2023-05-13T10:57:17.756Z,17.38
2023-05-13T11:02:34.234Z,18.25
2023-05-13T11:07:57.144Z,19.03
2023-05-13T11:13:24.707Z,19.75
2023-05-13T11:18:35.001Z,20.36
2023-05-13T11:23:56.914Z,21.40
2023-05-13T11:29:07.657Z,21.67
2023-05-13T11:34:18.159Z,21.80
2023-05-13T11:39:26.732Z,20.86
2023-05-13T11:44:33.801Z,20.51
2023-05-13T11:49:42.369Z,20.92
2023-05-13T11:54:51.045Z,21.37
2023-05-13T12:00:00.869Z,21.92
2023-05-13T12:05:16.544Z,21.79
2023-05-13T12:10:23.321Z,21.69
2023-05-13T12:15:30.879Z,21.10
2023-05-13T12:20:38.282Z,20.96
2023-05-13T12:25:46.694Z,20.35
2023-05-13T12:30:56.229Z,20.93
2023-05-13T12:36:16.603Z,20.15
2023-05-13T12:41:21.360Z,20.96
2023-05-13T12:46:27.430Z,20.30
2023-05-13T12:51:34.287Z,20.04
2023-05-13T12:57:04.984Z,19.82
2023-05-13T13:02:19.033Z,20.12
2023-05-13T13:07:25.216Z,20.12
2023-05-13T13:12:31.804Z,20.19
2023-05-13T13:17:52.332Z,21.39
2023-05-13T13:23:17.954Z,20.80
2023-05-13T13:28:43.092Z,20.29
2023-05-13T13:34:25.301Z,19.90
2023-05-13T13:39:51.741Z,19.96
2023-05-13T13:45:11.468Z,19.98
2023-05-13T13:51:00.690Z,22.65
2023-05-13T13:56:23.885Z,24.44
2023-05-13T14:01:54.234Z,24.53
2023-05-13T14:07:24.797Z,25.09
2023-05-13T14:13:27.544Z,25.51
2023-05-13T14:19:45.120Z,27.98
2023-05-13T14:25:46.775Z,29.86
2023-05-13T14:31:42.544Z,31.25
2023-05-13T14:37:23.598Z,32.50
2023-05-13T14:42:58.088Z,35.88
2023-05-13T14:48:16.794Z,33.47
2023-05-13T14:54:02.166Z,32.31
2023-05-13T14:59:34.966Z,30.67
2023-05-13T15:05:17.257Z,30.00
2023-05-13T15:11:37.017Z,28.69
2023-05-13T15:17:23.604Z,27.19
2023-05-13T15:22:47.116Z,27.37
2023-05-13T15:27:56.145Z,27.65
2023-05-13T15:33:04.421Z,28.89
2023-05-13T15:38:13.239Z,32.52
2023-05-13T15:43:18.753Z,36.67
2023-05-13T15:48:24.571Z,38.47
2023-05-13T15:53:29.991Z,39.80
2023-05-13T15:58:35.540Z,42.03
2023-05-13T16:03:40.940Z,45.96
2023-05-13T16:08:47.567Z,44.50
2023-05-13T16:13:53.291Z,45.74
2023-05-13T16:18:59.016Z,50.15
2023-05-13T16:24:07.003Z,51.74
2023-05-13T16:29:12.590Z,50.24
2023-05-13T16:34:18.069Z,49.25
2023-05-13T16:39:23.581Z,49.50
2023-05-13T16:44:28.955Z,47.22
2023-05-13T16:49:37.870Z,45.11
2023-05-13T16:54:44.730Z,43.80
2023-05-13T16:59:50.156Z,44.07
2023-05-13T17:04:55.815Z,44.36
2023-05-13T17:10:01.412Z,45.05
2023-05-13T17:15:08.900Z,46.94
2023-05-13T17:20:14.846Z,49.61
2023-05-13T17:25:20.343Z,51.96
2023-05-13T17:30:26.031Z,53.94
2023-05-13T17:35:31.594Z,55.65
2023-05-13T17:40:37.184Z,57.52
2023-05-13T17:45:46.025Z,59.45
2023-05-13T17:50:51.697Z,54.92
2023-05-13T17:55:57.752Z,53.85
2023-05-13T18:02:33.123Z,53.38
2023-05-13T18:07:10.493Z,54.03
2023-05-13T18:12:18.549Z,54.16
2023-05-13T18:17:25.878Z,55.78
2023-05-13T18:22:31.636Z,57.03
2023-05-13T18:27:37.256Z,58.08
2023-05-13T18:32:42.672Z,58.31
2023-05-13T18:37:48.416Z,58.43
2023-05-13T18:42:54.067Z,58.70
2023-05-13T18:48:00.851Z,58.73
2023-05-13T18:53:06.355Z,58.23
2023-05-13T18:58:12.517Z,57.99
2023-05-13T19:03:18.101Z,59.49
2023-05-13T19:08:23.867Z,61.48
2023-05-13T19:13:43.356Z,63.32
2023-05-13T19:18:53.895Z,64.37
2023-05-13T19:24:02.031Z,63.86
2023-05-13T19:29:07.524Z,63.36
2023-05-13T19:34:14.695Z,63.56
2023-05-13T19:39:21.348Z,63.77
2023-05-13T19:44:28.170Z,63.20
2023-05-13T19:49:33.760Z,64.39
2023-05-13T19:54:41.933Z,67.10
2023-05-13T19:59:49.119Z,69.04
2023-05-13T20:04:54.786Z,70.05
2023-05-13T20:10:01.264Z,70.59
2023-05-13T20:15:08.284Z,71.78
2023-05-13T20:20:14.319Z,72.72
2023-05-13T20:25:20.151Z,73.31
2023-05-13T20:30:25.712Z,74.24
2023-05-13T20:35:31.436Z,74.74
2023-05-13T20:40:36.969Z,75.95
2023-05-13T20:45:42.515Z,77.11
2023-05-13T20:50:47.970Z,77.59
2023-05-13T20:55:53.996Z,78.23
2023-05-13T21:00:59.416Z,78.43
2023-05-13T21:06:05.626Z,78.82
2023-05-13T21:11:11.272Z,79.32
2023-05-13T21:16:16.812Z,80.17
2023-05-13T21:21:22.674Z,80.61
2023-05-13T21:26:28.168Z,81.07
2023-05-13T21:31:33.622Z,81.04
2023-05-13T21:36:39.390Z,81.65
2023-05-13T21:41:45.369Z,81.91
2023-05-13T21:46:50.930Z,82.31
2023-05-13T21:51:56.573Z,82.74
2023-05-13T21:57:02.519Z,83.57
2023-05-13T22:02:08.002Z,84.50
2023-05-13T22:07:13.586Z,85.05
2023-05-13T22:12:18.926Z,85.26
2023-05-13T22:17:24.700Z,85.29
2023-05-13T22:22:30.207Z,85.51
2023-05-13T22:27:35.868Z,85.70
2023-05-13T22:32:41.448Z,86.03
2023-05-13T22:37:47.154Z,86.60
2023-05-13T22:42:52.484Z,86.80
2023-05-13T22:47:58.107Z,86.98
2023-05-13T22:53:04.511Z,87.20
2023-05-13T22:58:10.058Z,87.40
2023-05-13T23:03:15.746Z,87.80
2023-05-13T23:08:21.154Z,88.17
2023-05-13T23:13:26.614Z,87.90
2023-05-13T23:18:34.063Z,87.90
2023-05-13T23:23:39.559Z,87.88
2023-05-13T23:28:44.982Z,88.23
2023-05-13T23:33:50.347Z,88.52
2023-05-13T23:38:55.745Z,89.15
2023-05-13T23:44:01.158Z,89.88
2023-05-13T23:49:06.768Z,89.86
2023-05-13T23:54:12.535Z,89.96
2023-05-13T23:59:17.923Z,89.87
